Time;durP1;ratioP1;P1;durP2;ratioP2;P2;SDS_P1;SDS_P2;PMS_P1;PMS_P2;Temp;Humidity;BMP_temperature;BMP_pressure;BME280_temperature;BME280_humidity;BME280_pressure;Samples;Min_cycle;Max_cycle;Signal;HPM_P1;HPM_P2
2021/09/25 00:02:18;;;;;;;14.75;4.55;;;;;;;17.29;84.41;101622.34;5028017;28;20033;-76
2021/09/25 00:04:44;;;;;;;11.05;3.10;;;;;;;17.25;85.01;101625.88;5023786;28;20026;-75
2021/09/25 00:07:10;;;;;;;11.52;3.38;;;;;;;17.26;84.97;101627.66;5027773;28;20033;-75
2021/09/25 00:09:35;;;;;;;14.48;3.95;;;;;;;17.23;85.49;101632.94;5029940;28;20036;-75
2021/09/25 00:12:01;;;;;;;12.68;3.58;;;;;;;17.22;85.43;101625.88;5029064;28;20399;-75
2021/09/25 00:14:26;;;;;;;15.48;3.85;;;;;;;17.14;86.09;101624.06;5029644;28;20029;-77
2021/09/25 00:16:52;;;;;;;11.18;3.67;;;;;;;17.23;85.77;101617.91;5028167;28;20112;-76
2021/09/25 00:19:17;;;;;;;15.75;3.38;;;;;;;17.21;85.95;101624.09;5027894;28;20125;-76
2021/09/25 00:21:42;;;;;;;14.35;3.80;;;;;;;17.19;85.91;101619.66;5030246;28;20091;-75
2021/09/25 00:24:08;;;;;;;14.25;3.10;;;;;;;17.22;86.33;101623.22;5028284;28;20025;-75
2021/09/25 00:26:33;;;;;;;9.30;3.47;;;;;;;17.16;86.53;101614.34;5028837;28;20590;-75
2021/09/25 00:28:58;;;;;;;18.63;4.15;;;;;;;17.12;86.55;101617.88;5028290;28;20552;-75
2021/09/25 00:31:24;;;;;;;11.02;3.80;;;;;;;17.15;87.13;101617.88;5027925;28;20029;-75
2021/09/25 00:33:49;;;;;;;13.02;4.00;;;;;;;17.10;87.56;101622.28;5029126;28;20022;-76
2021/09/25 00:36:15;;;;;;;14.35;4.47;;;;;;;17.11;87.11;101626.72;5027890;28;20487;-76
2021/09/25 00:38:40;;;;;;;16.38;3.95;;;;;;;17.04;87.82;101622.28;5030131;28;20033;-75
2021/09/25 00:41:08;;;;;;;11.60;3.22;;;;;;;17.02;87.99;101622.28;5027260;28;20024;-77
2021/09/25 00:43:34;;;;;;;12.77;3.50;;;;;;;16.98;88.18;101630.25;5029544;28;20036;-76
2021/09/25 00:45:59;;;;;;;7.63;3.33;;;;;;;16.97;88.30;101626.72;5029155;28;20443;-75
2021/09/25 00:48:25;;;;;;;14.05;3.47;;;;;;;17.00;87.97;101628.50;5028321;28;20033;-77
2021/09/25 00:50:51;;;;;;;13.30;3.85;;;;;;;16.98;87.81;101623.16;5028708;28;20396;-75
2021/09/25 00:53:16;;;;;;;12.73;3.47;;;;;;;16.96;87.91;101629.38;5028076;28;20029;-75
2021/09/25 00:55:42;;;;;;;16.40;4.20;;;;;;;16.95;88.01;101628.47;5028791;28;20017;-77
2021/09/25 00:58:07;;;;;;;10.32;3.47;;;;;;;16.96;88.00;101634.69;5027667;28;20487;-75
2021/09/25 01:00:34;;;;;;;21.25;4.60;;;;;;;16.95;87.95;101632.91;5026057;28;20022;-76
2021/09/25 01:03:00;;;;;;;13.05;4.45;;;;;;;16.91;88.41;101632.00;5020716;28;20056;-75
2021/09/25 01:05:25;;;;;;;13.25;3.80;;;;;;;16.94;88.17;101628.47;5027907;28;20033;-74
2021/09/25 01:07:51;;;;;;;15.13;4.30;;;;;;;16.99;87.92;101621.38;5028198;28;20498;-78
2021/09/25 01:10:18;;;;;;;9.77;3.78;;;;;;;16.97;87.81;101620.47;5029151;28;20060;-76
2021/09/25 01:12:44;;;;;;;18.10;4.30;;;;;;;16.95;88.24;101627.59;5027627;28;20029;-75
2021/09/25 01:15:11;;;;;;;17.98;4.80;;;;;;;16.97;87.71;101625.81;5032202;28;20104;-74
2021/09/25 01:17:36;;;;;;;14.48;4.80;;;;;;;16.92;87.82;101627.59;5031713;28;20077;-75
2021/09/25 01:20:03;;;;;;;14.75;4.90;;;;;;;16.94;87.76;101620.47;5033066;28;21124;-76
2021/09/25 01:22:29;;;;;;;8.68;4.50;;;;;;;16.93;87.63;101618.69;5031795;28;20025;-76
2021/09/25 01:24:54;;;;;;;18.23;4.55;;;;;;;16.91;87.51;101626.69;5031811;28;20024;-76
2021/09/25 01:27:20;;;;;;;19.95;5.22;;;;;;;16.90;87.42;101629.34;5031754;28;20047;-76
2021/09/25 01:29:47;;;;;;;14.55;5.20;;;;;;;16.85;87.66;101623.97;5031474;28;20029;-75
2021/09/25 01:32:12;;;;;;;10.18;4.95;;;;;;;16.79;87.93;101622.19;5029837;28;20026;-75
2021/09/25 01:34:38;;;;;;;10.52;4.88;;;;;;;16.81;88.00;101620.41;5031831;28;20530;-76
2021/09/25 01:37:04;;;;;;;14.75;6.30;;;;;;;16.84;87.72;101620.41;5032013;28;20040;-74
2021/09/25 01:39:30;;;;;;;15.20;5.88;;;;;;;16.78;87.72;101623.06;5026619;28;20391;-77
2021/09/25 01:41:58;;;;;;;15.27;6.00;;;;;;;16.73;88.26;101630.13;5032185;28;20025;-75
2021/09/25 01:44:26;;;;;;;11.88;5.68;;;;;;;16.71;88.25;101623.91;5032515;28;20124;-76
2021/09/25 01:46:52;;;;;;;19.92;5.97;;;;;;;16.72;88.15;101628.34;5031881;28;20072;-76
2021/09/25 01:49:17;;;;;;;12.05;5.35;;;;;;;16.76;87.84;101622.16;5031022;28;20033;-75
2021/09/25 01:51:43;;;;;;;14.90;6.45;;;;;;;16.74;87.77;101615.97;5029684;28;20518;-75
2021/09/25 01:54:08;;;;;;;13.55;6.05;;;;;;;16.70;88.06;101616.84;5032323;28;20483;-76
2021/09/25 01:56:33;;;;;;;17.60;7.07;;;;;;;16.65;88.17;101615.94;5033422;28;20104;-74
2021/09/25 01:58:59;;;;;;;19.73;6.55;;;;;;;16.59;88.54;101623.88;5031807;28;20048;-75
2021/09/25 02:01:24;;;;;;;16.00;6.75;;;;;;;16.62;88.49;101619.47;5033269;28;20025;-76
2021/09/25 02:03:50;;;;;;;17.73;6.72;;;;;;;16.57;88.94;101623.00;5028188;28;20021;-76
2021/09/25 02:06:15;;;;;;;20.77;6.38;;;;;;;16.65;88.53;101610.63;5030539;28;20053;-76
2021/09/25 02:08:42;;;;;;;19.42;6.53;;;;;;;16.61;88.70;101628.31;5030836;28;20037;-74
2021/09/25 02:11:08;;;;;;;19.17;7.22;;;;;;;16.65;88.51;101613.28;5030075;28;20018;-75
2021/09/25 02:13:33;;;;;;;18.25;6.88;;;;;;;16.61;88.61;101611.50;5032316;28;20037;-75
2021/09/25 02:16:00;;;;;;;16.63;6.95;;;;;;;16.54;89.03;101620.34;5030981;28;20052;-76
2021/09/25 02:18:26;;;;;;;20.38;7.70;;;;;;;16.49;89.66;101621.19;5028563;28;20400;-76
2021/09/25 02:20:53;;;;;;;19.08;6.97;;;;;;;16.48;89.56;101616.75;5031580;28;20057;-76
2021/09/25 02:23:18;;;;;;;19.73;7.13;;;;;;;16.50;89.71;101614.97;5030983;28;20056;-76
2021/09/25 02:25:43;;;;;;;20.60;7.65;;;;;;;16.54;89.46;101620.34;5029419;28;20061;-76
2021/09/25 02:28:09;;;;;;;20.88;6.75;;;;;;;16.54;89.61;101621.22;5028827;28;20032;-75
2021/09/25 02:30:34;;;;;;;12.55;6.72;;;;;;;16.52;89.49;101617.63;5031717;28;20033;-77
2021/09/25 02:33:00;;;;;;;18.20;6.72;;;;;;;16.56;89.74;101619.44;5031274;28;20098;-74
2021/09/25 02:35:25;;;;;;;17.50;7.07;;;;;;;16.48;90.02;101615.84;5030945;28;20021;-74
2021/09/25 02:37:52;;;;;;;19.55;7.53;;;;;;;16.47;90.27;101612.31;5030007;28;20027;-75
2021/09/25 02:40:20;;;;;;;15.55;6.35;;;;;;;16.47;90.00;101608.78;5032115;28;20025;-76
2021/09/25 02:42:46;;;;;;;15.90;7.10;;;;;;;16.46;90.23;101613.19;5030360;28;20029;-75
2021/09/25 02:45:14;;;;;;;14.98;6.43;;;;;;;16.47;90.22;101614.97;5029927;28;20100;-77
2021/09/25 02:47:40;;;;;;;19.05;7.90;;;;;;;16.43;90.42;101621.16;5030683;28;20033;-74
2021/09/25 02:50:08;;;;;;;16.33;7.18;;;;;;;16.49;90.13;101610.56;5029831;28;20565;-77
2021/09/25 02:52:34;;;;;;;14.45;6.43;;;;;;;16.49;90.39;101607.00;5028919;28;20494;-76
2021/09/25 02:54:59;;;;;;;12.40;7.15;;;;;;;16.47;90.54;101609.66;5030865;28;20029;-78
2021/09/25 02:57:25;;;;;;;19.52;7.43;;;;;;;16.42;91.08;101610.53;5029732;28;20025;-76
2021/09/25 02:59:50;;;;;;;20.08;7.40;;;;;;;16.41;90.87;101609.63;5029873;28;20032;-74
2021/09/25 03:02:16;;;;;;;19.95;7.00;;;;;;;16.45;90.65;101611.41;5031631;28;20033;-74
2021/09/25 03:04:41;;;;;;;17.08;7.43;;;;;;;16.43;90.97;101610.53;5027287;28;20013;-75
2021/09/25 03:07:08;;;;;;;13.90;7.35;;;;;;;16.44;91.02;101620.28;5028751;28;20022;-76
2021/09/25 03:09:34;;;;;;;17.38;7.55;;;;;;;16.41;90.96;101614.94;5029076;28;20156;-77
2021/09/25 03:11:59;;;;;;;19.63;8.98;;;;;;;16.41;91.51;101614.94;5030643;28;20025;-75
2021/09/25 03:14:25;;;;;;;18.92;9.20;;;;;;;16.35;91.33;101613.13;5032148;28;20029;-77
2021/09/25 03:16:50;;;;;;;14.38;8.32;;;;;;;16.36;91.59;101611.41;5029595;28;20017;-76
2021/09/25 03:19:15;;;;;;;19.88;9.13;;;;;;;16.39;91.30;101611.41;5030422;28;20476;-75
2021/09/25 03:21:41;;;;;;;21.02;8.98;;;;;;;16.41;91.59;101609.63;5029856;28;20400;-75
2021/09/25 03:24:06;;;;;;;21.80;9.88;;;;;;;16.41;91.50;101614.06;5031364;28;20082;-77
2021/09/25 03:26:32;;;;;;;21.98;9.05;;;;;;;16.41;91.22;101609.63;5030548;28;20025;-76
2021/09/25 03:28:57;;;;;;;21.77;9.85;;;;;;;16.43;91.48;101612.31;5029492;28;20025;-74
2021/09/25 03:31:22;;;;;;;29.95;12.55;;;;;;;16.45;91.09;101613.19;5030264;28;20033;-79
2021/09/25 03:33:48;;;;;;;25.67;12.43;;;;;;;16.42;91.28;101611.41;5029704;28;20099;-74
2021/09/25 03:36:13;;;;;;;19.67;11.32;;;;;;;16.38;91.85;101614.94;5029163;28;20033;-77
2021/09/25 03:38:38;;;;;;;26.05;10.30;;;;;;;16.36;91.88;101611.41;5028497;28;20048;-76
2021/09/25 03:41:04;;;;;;;24.90;9.18;;;;;;;16.38;91.50;101609.63;5030299;28;20112;-76
2021/09/25 03:43:29;;;;;;;21.42;8.45;;;;;;;16.41;91.91;101609.63;5030142;28;20029;-77
2021/09/25 03:45:55;;;;;;;19.55;9.93;;;;;;;16.40;92.19;101602.56;5029204;28;20029;-75
2021/09/25 03:48:20;;;;;;;20.25;8.63;;;;;;;16.37;92.08;101602.53;5025020;28;20458;-74
2021/09/25 03:50:46;;;;;;;21.38;9.18;;;;;;;16.35;92.71;101613.13;5030177;28;20025;-76
2021/09/25 03:53:11;;;;;;;20.30;9.23;;;;;;;16.41;92.46;101604.31;5028975;28;20025;-76
2021/09/25 03:55:37;;;;;;;25.60;10.02;;;;;;;16.45;91.84;101616.72;5030104;28;20033;-76
2021/09/25 03:58:02;;;;;;;16.10;7.90;;;;;;;16.42;92.47;101615.84;5029525;28;20116;-74
2021/09/25 04:00:28;;;;;;;28.33;10.00;;;;;;;16.41;92.67;101616.72;5029235;28;20079;-77
2021/09/25 04:02:54;;;;;;;16.75;8.32;;;;;;;16.40;92.89;101623.81;5026741;28;20076;-77
2021/09/25 04:05:20;;;;;;;18.90;9.02;;;;;;;16.39;93.05;101635.31;5029413;28;20064;-74
2021/09/25 04:07:47;;;;;;;24.05;10.10;;;;;;;16.40;93.26;101629.13;5027717;28;20021;-75
2021/09/25 04:10:13;;;;;;;23.58;10.57;;;;;;;16.42;92.84;101623.81;5029274;28;20440;-75
2021/09/25 04:12:39;;;;;;;20.65;9.05;;;;;;;16.39;93.37;101622.03;5028470;28;20100;-76
2021/09/25 04:15:07;;;;;;;22.58;9.55;;;;;;;16.39;93.68;101627.34;5027643;28;20053;-76
2021/09/25 04:17:33;;;;;;;25.50;10.50;;;;;;;16.37;93.65;101623.78;5027963;28;20033;-75
2021/09/25 04:19:58;;;;;;;18.15;10.23;;;;;;;16.37;93.93;101615.81;5029322;28;20029;-78
2021/09/25 04:22:23;;;;;;;23.20;10.45;;;;;;;16.36;93.91;101624.66;5028921;28;20025;-76
2021/09/25 04:24:49;;;;;;;26.38;11.77;;;;;;;16.39;93.94;101619.38;5026430;28;20025;-75
2021/09/25 04:27:15;;;;;;;21.20;10.63;;;;;;;16.43;93.77;101620.28;5029657;28;20529;-77
2021/09/25 04:29:40;;;;;;;20.83;10.10;;;;;;;16.43;93.47;101617.63;5028614;28;20045;-77
2021/09/25 04:32:06;;;;;;;18.75;9.90;;;;;;;16.41;93.54;101620.25;5027800;28;20021;-76
2021/09/25 04:34:32;;;;;;;17.55;10.60;;;;;;;16.41;93.53;101622.03;5029976;28;20369;-78
2021/09/25 04:36:57;;;;;;;24.67;11.50;;;;;;;16.38;93.94;101630.00;5030185;28;20029;-76
2021/09/25 04:39:24;;;;;;;22.38;12.60;;;;;;;16.36;94.20;101622.03;5028943;28;20078;-76
2021/09/25 04:41:50;;;;;;;23.25;12.13;;;;;;;16.39;94.08;101627.34;5029159;28;20025;-75
2021/09/25 04:44:16;;;;;;;26.30;11.98;;;;;;;16.38;94.28;101617.59;5026698;28;20053;-75
2021/09/25 04:46:43;;;;;;;27.38;12.80;;;;;;;16.38;94.49;101609.63;5028278;28;20053;-77
2021/09/25 04:49:09;;;;;;;24.38;11.52;;;;;;;16.37;94.54;101618.47;5026620;28;20447;-75
2021/09/25 04:51:34;;;;;;;30.00;13.95;;;;;;;16.31;95.26;101614.00;5025397;28;20014;-76
2021/09/25 04:54:00;;;;;;;29.25;13.55;;;;;;;16.32;95.29;101614.91;5026652;28;20025;-75
2021/09/25 04:56:25;;;;;;;30.45;12.48;;;;;;;16.34;95.25;101610.47;5028035;28;20080;-76
2021/09/25 04:58:51;;;;;;;28.90;13.10;;;;;;;16.33;95.39;101612.25;5027878;28;20099;-76
2021/09/25 05:01:17;;;;;;;30.40;13.18;;;;;;;16.35;95.02;101614.91;5028249;28;20044;-75
2021/09/25 05:03:42;;;;;;;36.58;14.70;;;;;;;16.33;95.58;101606.94;5024401;28;20052;-77
2021/09/25 05:06:07;;;;;;;32.72;14.40;;;;;;;16.37;95.07;101607.84;5029881;28;20029;-74
2021/09/25 05:08:33;;;;;;;27.23;13.13;;;;;;;16.41;95.10;101612.28;5029340;28;20044;-75
2021/09/25 05:10:58;;;;;;;32.97;14.13;;;;;;;16.43;94.82;101612.31;5029030;28;20022;-76
2021/09/25 05:13:24;;;;;;;43.00;15.43;;;;;;;16.39;95.25;101611.41;5028703;28;20455;-77
2021/09/25 05:15:49;;;;;;;36.45;14.85;;;;;;;16.41;95.41;101614.06;5026895;28;20052;-76
2021/09/25 05:18:15;;;;;;;39.45;14.98;;;;;;;16.37;95.59;101614.94;5027974;28;20037;-77
2021/09/25 05:20:40;;;;;;;31.45;15.15;;;;;;;16.36;95.92;101614.06;5028738;28;20037;-76
2021/09/25 05:23:05;;;;;;;37.28;14.00;;;;;;;16.42;95.50;101616.72;5027364;28;20064;-76
2021/09/25 05:25:31;;;;;;;37.00;15.48;;;;;;;16.40;96.10;101613.19;5028279;28;20033;-76
2021/09/25 05:27:56;;;;;;;43.20;15.80;;;;;;;16.39;95.77;101611.41;5027625;28;20111;-75
2021/09/25 05:30:22;;;;;;;41.80;16.35;;;;;;;16.40;96.00;101612.28;5028911;28;20034;-73
2021/09/25 05:32:47;;;;;;;45.83;16.75;;;;;;;16.38;96.19;101620.25;5027661;28;20555;-76
2021/09/25 05:35:13;;;;;;;33.38;15.60;;;;;;;16.39;96.46;101622.03;5028705;28;20034;-75
2021/09/25 05:37:38;;;;;;;44.17;18.05;;;;;;;16.39;96.35;101619.38;5028629;28;20021;-78
2021/09/25 05:40:04;;;;;;;39.45;17.08;;;;;;;16.35;96.98;101621.09;5028410;28;20430;-76
2021/09/25 05:42:30;;;;;;;46.22;16.95;;;;;;;16.36;96.80;101616.72;5030599;28;20120;-76
2021/09/25 05:44:56;;;;;;;50.05;19.88;;;;;;;16.38;96.83;101614.94;5028308;28;20471;-76
2021/09/25 05:47:23;;;;;;;45.10;17.77;;;;;;;16.38;97.09;101616.72;5028144;28;20107;-76
2021/09/25 05:49:48;;;;;;;39.92;16.48;;;;;;;16.40;96.71;101618.50;5027773;28;20104;-75
2021/09/25 05:52:15;;;;;;;44.72;17.42;;;;;;;16.43;97.00;101617.63;5028620;28;20120;-75
2021/09/25 05:54:41;;;;;;;45.92;17.20;;;;;;;16.48;96.89;101619.41;5027529;28;20080;-75
2021/09/25 05:57:07;;;;;;;45.00;17.77;;;;;;;16.49;96.63;101621.19;5027395;28;20022;-76
2021/09/25 05:59:33;;;;;;;48.13;17.77;;;;;;;16.48;97.05;101630.03;5026490;28;20036;-76
2021/09/25 06:01:59;;;;;;;44.50;17.05;;;;;;;16.44;97.25;101628.25;5032258;28;20025;-74
2021/09/25 06:04:24;;;;;;;55.58;18.23;;;;;;;16.46;97.39;101623.81;5027085;28;20043;-77
2021/09/25 06:06:50;;;;;;;41.53;16.48;;;;;;;16.56;96.95;101621.22;5031609;28;20032;-77
2021/09/25 06:09:15;;;;;;;49.65;16.67;;;;;;;16.57;97.02;101620.34;5030422;28;20056;-76
2021/09/25 06:11:41;;;;;;;45.83;17.48;;;;;;;16.55;97.17;101623.00;5028707;28;20148;-75
2021/09/25 06:14:06;;;;;;;39.55;16.83;;;;;;;16.58;97.13;101632.75;5031093;28;20052;-77
2021/09/25 06:16:32;;;;;;;45.50;18.13;;;;;;;16.59;97.12;101627.44;5028033;28;20032;-77
2021/09/25 06:18:57;;;;;;;46.53;16.70;;;;;;;16.64;97.02;101628.34;5033567;28;20035;-75
2021/09/25 06:21:22;;;;;;;41.63;16.33;;;;;;;16.70;96.93;101624.81;5031256;28;20061;-76
2021/09/25 06:23:48;;;;;;;50.10;18.10;;;;;;;16.71;97.06;101625.69;5031746;28;20014;-75
2021/09/25 06:26:14;;;;;;;38.85;16.00;;;;;;;16.70;96.75;101614.19;5031675;28;20036;-77
2021/09/25 06:28:39;;;;;;;46.25;17.38;;;;;;;16.73;96.80;101619.50;5031506;28;20053;-77
2021/09/25 06:31:25;;;;;;;48.45;16.67;;;;;;;16.76;96.43;101627.47;5028745;28;20491;-80
2021/09/25 06:33:50;;;;;;;42.15;16.05;;;;;;;16.80;96.60;101623.94;5030014;28;20415;-76
2021/09/25 06:36:40;;;;;;;45.60;16.52;;;;;;;16.83;96.08;101625.72;5031159;28;20112;-77
2021/09/25 06:39:06;;;;;;;43.78;16.20;;;;;;;16.83;96.41;101626.66;5029592;28;20120;-77
2021/09/25 06:41:31;;;;;;;50.50;17.20;;;;;;;16.79;96.68;101626.59;5031364;28;20108;-75
2021/09/25 06:43:57;;;;;;;47.90;18.45;;;;;;;16.79;96.76;101635.50;5062470;28;20494;-75
2021/09/25 06:46:22;;;;;;;44.50;18.27;;;;;;;16.85;96.52;101631.97;5028286;28;20021;-77
2021/09/25 06:48:49;;;;;;;40.50;17.27;;;;;;;16.89;96.21;101630.19;5031943;28;20033;-79
2021/09/25 06:51:16;;;;;;;57.60;19.00;;;;;;;16.82;96.83;101635.50;5030872;28;20033;-75
2021/09/25 06:53:42;;;;;;;55.38;19.45;;;;;;;16.83;96.82;101633.72;5028403;28;20030;-76
2021/09/25 06:56:07;;;;;;;60.45;19.73;;;;;;;16.86;96.59;101633.72;5032166;28;20037;-75
2021/09/25 06:58:33;;;;;;;51.53;19.10;;;;;;;16.98;96.51;101639.13;5029349;28;20018;-75
2021/09/25 07:00:58;;;;;;;51.88;18.73;;;;;;;17.10;95.86;101635.59;5030332;28;20476;-75
2021/09/25 07:03:24;;;;;;;50.72;18.20;;;;;;;17.21;95.05;101640.94;5029824;28;20037;-77
2021/09/25 07:05:49;;;;;;;51.05;18.52;;;;;;;17.30;94.95;101642.72;5029982;28;20629;-78
2021/09/25 07:08:15;;;;;;;57.90;19.50;;;;;;;17.35;94.40;101633.00;5029325;28;20067;-77
2021/09/25 07:10:40;;;;;;;54.30;20.27;;;;;;;17.33;94.54;101640.06;5031058;28;20030;-78
2021/09/25 07:13:06;;;;;;;49.53;19.33;;;;;;;17.41;94.00;101637.44;5028515;28;20048;-77
2021/09/25 07:15:32;;;;;;;64.00;22.08;;;;;;;17.44;94.44;101630.31;5028846;28;20123;-76
2021/09/25 07:17:58;;;;;;;54.47;20.83;;;;;;;17.52;93.71;101636.53;5028059;28;20022;-75
2021/09/25 07:20:24;;;;;;;51.60;20.85;;;;;;;17.60;93.72;101633.00;5028471;28;20049;-76
2021/09/25 07:23:10;;;;;;;62.22;21.83;;;;;;;17.63;93.48;101639.19;5028826;28;20026;-77
2021/09/25 07:25:55;;;;;;;63.78;21.17;;;;;;;17.74;93.47;101640.97;5030199;28;20056;-77
2021/09/25 07:28:22;;;;;;;54.67;21.50;;;;;;;17.78;92.37;101643.63;5033245;28;20045;-76
2021/09/25 07:30:48;;;;;;;57.42;21.30;;;;;;;17.91;92.58;101654.28;5030954;28;20021;-78
2021/09/25 07:33:17;;;;;;;49.88;20.45;;;;;;;18.02;91.61;101653.41;5028130;28;20034;-77
2021/09/25 07:35:44;;;;;;;57.13;19.30;;;;;;;18.05;91.89;101652.50;5023210;28;20096;-80
2021/09/25 07:38:10;;;;;;;54.20;19.83;;;;;;;18.13;91.76;101656.03;5030689;28;20541;-75
2021/09/25 07:40:36;;;;;;;49.47;18.60;;;;;;;18.29;90.51;101667.56;5026980;28;20033;-75
2021/09/25 07:43:03;;;;;;;55.42;21.10;;;;;;;18.26;90.64;101664.00;5029097;28;20083;-76
2021/09/25 07:45:28;;;;;;;44.85;19.00;;;;;;;18.30;90.90;101668.44;5029692;28;20055;-75
2021/09/25 07:47:54;;;;;;;44.42;20.38;;;;;;;18.34;89.83;101670.25;5028782;28;20056;-74
2021/09/25 07:50:20;;;;;;;57.75;21.40;;;;;;;18.38;90.69;101672.00;5027158;28;20475;-76
2021/09/25 07:52:46;;;;;;;44.90;19.02;;;;;;;18.51;89.69;101673.72;5031743;28;20025;-75
2021/09/25 07:55:13;;;;;;;49.40;20.08;;;;;;;18.59;89.09;101670.16;5028618;28;20771;-77
2021/09/25 07:57:39;;;;;;;51.45;21.75;;;;;;;18.50;89.15;101673.72;5030390;28;20041;-77
2021/09/25 08:00:07;;;;;;;57.72;22.60;;;;;;;18.40;90.14;101680.88;5029738;28;20078;-77
2021/09/25 08:02:33;;;;;;;42.13;18.27;;;;;;;18.49;89.62;101686.16;5028669;28;20033;-77
2021/09/25 08:04:59;;;;;;;51.75;21.23;;;;;;;18.44;89.47;101693.28;5025769;28;20032;-78
2021/09/25 08:07:24;;;;;;;43.33;20.45;;;;;;;18.42;89.23;101696.84;5030243;28;20055;-77
2021/09/25 08:09:49;;;;;;;51.78;19.55;;;;;;;18.39;89.71;101694.19;5027753;28;20117;-76
2021/09/25 08:12:15;;;;;;;46.70;19.73;;;;;;;18.39;89.93;101699.53;5028791;28;20078;-77
2021/09/25 08:14:40;;;;;;;48.47;20.33;;;;;;;18.36;90.40;101700.41;5029868;28;20483;-79
2021/09/25 08:17:06;;;;;;;48.22;19.75;;;;;;;18.39;90.21;101705.72;5028080;28;20040;-78
2021/09/25 08:19:31;;;;;;;44.38;20.17;;;;;;;18.46;90.15;101709.28;5030204;28;20029;-77
2021/09/25 08:21:57;;;;;;;47.28;18.38;;;;;;;18.42;89.93;101711.06;5029449;28;20056;-76
2021/09/25 08:24:22;;;;;;;51.28;20.35;;;;;;;18.40;90.46;101718.16;5026102;28;20443;-76
2021/09/25 08:26:48;;;;;;;48.60;19.38;;;;;;;18.48;90.13;101710.16;5030314;28;20416;-75
2021/09/25 08:29:13;;;;;;;47.45;19.27;;;;;;;18.43;90.12;101707.50;5029689;28;20036;-76
2021/09/25 08:31:39;;;;;;;51.47;19.92;;;;;;;18.50;90.20;101719.03;5026380;28;20387;-76
2021/09/25 08:34:04;;;;;;;44.70;19.67;;;;;;;18.56;90.28;101724.38;5030670;28;20025;-77
2021/09/25 08:36:29;;;;;;;49.75;21.30;;;;;;;18.64;89.49;101719.03;5031190;28;20112;-76
2021/09/25 08:38:55;;;;;;;44.80;19.50;;;;;;;18.75;88.50;101714.53;5027848;28;20072;-76
2021/09/25 08:41:41;;;;;;;44.25;20.30;;;;;;;18.83;88.57;101726.06;5033564;28;20049;-72
2021/09/25 08:44:06;;;;;;;45.85;19.10;;;;;;;18.84;88.15;101724.25;5029581;28;20049;-76
2021/09/25 08:46:33;;;;;;;45.08;20.42;;;;;;;18.77;88.13;101731.38;5028855;28;20049;-76
2021/09/25 08:48:58;;;;;;;46.28;19.67;;;;;;;18.81;88.46;101735.81;5029680;28;20044;-77
2021/09/25 08:51:24;;;;;;;42.72;19.77;;;;;;;18.79;88.30;101736.75;5029960;28;20033;-77
2021/09/25 08:53:49;;;;;;;47.00;20.48;;;;;;;18.77;88.81;101739.38;5029949;28;20017;-78
2021/09/25 08:56:14;;;;;;;50.35;20.88;;;;;;;18.81;89.03;101735.81;5030992;28;20063;-77
2021/09/25 08:58:41;;;;;;;49.45;20.67;;;;;;;18.81;88.37;101741.16;5031505;28;20033;-77
2021/09/25 09:01:07;;;;;;;57.13;22.30;;;;;;;18.71;88.67;101737.63;5028075;28;20053;-78
2021/09/25 09:03:38;;;;;;;53.42;19.98;;;;;;;18.70;88.65;101737.66;5030107;28;20107;-78
2021/09/25 09:06:09;;;;;;;53.03;21.13;;;;;;;18.70;89.08;101742.97;5029918;28;20117;-78
2021/09/25 09:08:35;;;;;;;58.53;22.23;;;;;;;18.79;88.62;101740.28;5028606;28;20034;-77
2021/09/25 09:11:01;;;;;;;46.55;21.63;;;;;;;18.79;88.12;101742.09;5026462;28;20031;-77
2021/09/25 09:13:27;;;;;;;46.13;20.70;;;;;;;18.77;88.25;101743.84;5029201;28;20030;-79
2021/09/25 09:16:32;;;;;;;47.97;20.02;;;;;;;18.58;88.83;101751.88;5027561;28;20117;-78
2021/09/25 09:18:59;;;;;;;45.38;21.38;;;;;;;18.59;90.01;101759.00;5027187;28;20123;-76
2021/09/25 09:21:31;;;;;;;44.85;20.25;;;;;;;18.75;89.64;101767.84;5015117;28;20056;-76
2021/09/25 09:23:58;;;;;;;44.77;20.63;;;;;;;18.94;88.90;101763.38;5027408;28;20049;-77
2021/09/25 09:26:26;;;;;;;39.53;19.70;;;;;;;19.13;87.80;101763.31;5026387;28;20497;-76
2021/09/25 09:29:12;;;;;;;43.83;21.02;;;;;;;19.29;87.51;101766.78;5029737;28;20036;-76
2021/09/25 09:32:17;;;;;;;48.22;20.90;;;;;;;19.50;85.75;101761.34;5022345;28;20484;-76
2021/09/25 09:35:10;;;;;;;36.47;18.55;;;;;;;19.76;83.93;101752.25;5026908;28;20043;-77
2021/09/25 09:37:35;;;;;;;52.45;20.27;;;;;;;19.80;84.16;101753.13;5035270;28;20025;-76
2021/09/25 09:40:21;;;;;;;38.70;19.90;;;;;;;19.96;83.43;101748.59;5022535;28;20419;-77
2021/09/25 09:43:07;;;;;;;38.42;22.10;;;;;;;19.95;82.42;101738.81;5023111;28;20044;-77
2021/09/25 09:45:36;;;;;;;38.42;21.48;;;;;;;19.96;82.66;101735.25;5032516;28;20055;-78
2021/09/25 09:48:22;;;;;;;40.55;23.27;;;;;;;19.83;83.24;101747.81;5035001;28;20064;-77
2021/09/25 09:50:48;;;;;;;39.35;21.50;;;;;;;19.79;83.14;101749.59;5017802;28;20064;-78
2021/09/25 09:53:14;;;;;;;29.98;20.55;;;;;;;19.77;83.11;101748.72;5035087;28;20490;-78
2021/09/25 09:55:40;;;;;;;35.40;20.42;;;;;;;19.82;83.39;101754.06;5035918;28;20048;-77
2021/09/25 09:58:07;;;;;;;29.48;16.33;;;;;;;19.87;83.30;101750.47;5036332;28;20029;-77
2021/09/25 10:00:34;;;;;;;36.03;19.00;;;;;;;20.03;82.94;101742.31;5034111;28;20040;-77
2021/09/25 10:03:21;;;;;;;31.70;18.75;;;;;;;20.01;81.76;101744.13;5030123;28;20893;-76
2021/09/25 10:05:46;;;;;;;34.50;20.33;;;;;;;19.98;82.55;101744.13;5020225;28;20025;-78
2021/09/25 10:08:13;;;;;;;33.38;18.85;;;;;;;20.04;82.13;101750.31;5033437;28;20086;-77
2021/09/25 10:10:59;;;;;;;43.28;23.08;;;;;;;19.93;82.57;101745.97;5031990;28;20029;-77
2021/09/25 10:13:24;;;;;;;38.15;23.52;;;;;;;19.90;82.63;101743.31;5033595;28;20044;-76
2021/09/25 10:15:50;;;;;;;35.58;21.63;;;;;;;19.79;83.40;101754.94;5022672;28;20029;-78
2021/09/25 10:18:16;;;;;;;43.53;25.02;;;;;;;19.66;82.90;101753.25;5029719;28;20068;-78
2021/09/25 10:20:42;;;;;;;44.78;24.65;;;;;;;19.55;83.35;101756.84;5032640;28;20139;-75
2021/09/25 10:23:28;;;;;;;43.17;27.27;;;;;;;19.42;84.66;101755.16;5030990;28;20488;-78
2021/09/25 10:25:54;;;;;;;45.70;24.58;;;;;;;19.45;84.42;101751.59;5021168;28;20387;-80
2021/09/25 10:28:42;;;;;;;50.88;25.35;;;;;;;19.40;84.53;101751.63;5016918;28;20030;-77
2021/09/25 10:31:26;;;;;;;44.05;24.00;;;;;;;19.35;85.15;101754.28;5031145;28;20053;-78
2021/09/25 10:34:14;;;;;;;46.70;24.77;;;;;;;19.36;85.71;101753.41;5030911;28;20104;-77
2021/09/25 10:37:02;;;;;;;46.08;23.25;;;;;;;19.35;86.12;101753.41;5029490;28;20113;-77
2021/09/25 10:39:35;;;;;;;44.08;24.45;;;;;;;19.36;85.35;101756.06;5033434;28;20025;-76
2021/09/25 10:42:15;;;;;;;40.42;21.83;;;;;;;19.41;85.84;101755.16;5031120;28;20065;-78
2021/09/25 10:45:04;;;;;;;38.63;21.40;;;;;;;19.51;84.90;101743.56;5025518;28;20108;-78
2021/09/25 10:47:52;;;;;;;38.10;22.13;;;;;;;19.62;83.59;101746.16;5028467;28;20064;-78
2021/09/25 10:50:18;;;;;;;42.38;22.92;;;;;;;19.58;84.97;101747.06;5030156;28;20095;-79
2021/09/25 10:53:05;;;;;;;41.80;21.23;;;;;;;19.70;84.39;101749.66;5031954;28;20715;-79
2021/09/25 10:55:34;;;;;;;41.92;24.20;;;;;;;19.85;83.60;101744.22;5029190;28;20096;-77
2021/09/25 10:58:52;;;;;;;45.72;25.17;;;;;;;19.99;82.86;101746.78;5032536;28;20025;-79
2021/09/25 11:01:38;;;;;;;50.03;25.52;;;;;;;20.07;82.58;101738.72;5031616;28;20033;-78
2021/09/25 11:04:23;;;;;;;48.95;29.52;;;;;;;20.04;82.45;101739.63;5028344;28;20025;-78
2021/09/25 11:06:55;;;;;;;55.28;33.95;;;;;;;20.07;82.30;101738.72;5026476;28;20116;-77
2021/09/25 11:09:24;;;;;;;61.33;35.08;;;;;;;20.04;81.45;101733.41;5030762;28;20037;-78
2021/09/25 11:12:29;;;;;;;61.10;34.72;;;;;;;20.24;81.56;101735.00;5028914;28;20037;-81
2021/09/25 11:14:56;;;;;;;44.70;29.55;;;;;;;20.47;80.24;101727.66;5030744;28;20467;-82
2021/09/25 11:17:23;;;;;;;58.72;32.30;;;;;;;20.58;79.64;101735.56;5029578;28;20045;-82